Time;durP1;ratioP1;P1;durP2;ratioP2;P2;SDS_P1;SDS_P2;PMS_P1;PMS_P2;Temp;Humidity;BMP_temperature;BMP_pressure;BME280_temperature;BME280_humidity;BME280_pressure;Samples;Min_cycle;Max_cycle;Signal;HPM_P1;HPM_P2
2021/12/24 00:02:03;;;;;;;0.82;0.82;;;;;;;7.29;83.96;99537.34;6247426;22;20371;-75
2021/12/24 00:04:28;;;;;;;0.65;0.60;;;;;;;7.37;84.21;99544.97;6248884;22;20830;-75
2021/12/24 00:06:54;;;;;;;0.43;0.43;;;;;;;7.34;83.93;99537.34;6243106;23;20095;-75
2021/12/24 00:09:24;;;;;;;0.60;0.50;;;;;;;7.30;84.05;99528.09;6248681;23;20009;-76
2021/12/24 00:11:58;;;;;;;0.65;0.65;;;;;;;7.44;84.77;99545.53;6217605;23;20074;-72
2021/12/24 00:14:26;;;;;;;0.40;0.40;;;;;;;7.55;84.88;99537.41;6241833;22;20008;-72
2021/12/24 00:16:58;;;;;;;1.08;0.75;;;;;;;7.63;85.13;99539.63;6243848;23;20008;-73
2021/12/24 00:35:47;;;;;;;0.45;0.15;;;;;;;7.56;83.80;99520.03;6244041;23;20023;-74
2021/12/24 00:38:12;;;;;;;0.10;0.10;;;;;;;7.64;84.09;99527.66;6242223;23;20326;-73
2021/12/24 00:40:57;;;;;;;;;;;;;;;;;;;;;
2021/12/24 00:43:23;;;;;;;0.55;0.25;;;;;;;7.67;84.17;99505.34;6243166;23;20078;-74
2021/12/24 00:45:51;;;;;;;0.20;0.20;;;;;;;7.78;84.44;99517.06;6241111;22;20011;-74
2021/12/24 00:48:19;;;;;;;0.30;0.30;;;;;;;7.94;84.53;99512.47;6217076;23;20018;-73
2021/12/24 00:56:05;;;;;;;0.43;0.10;;;;;;;8.18;84.02;99493.69;6244064;23;20011;-75
2021/12/24 01:13:42;;;;;;;;;;;;;;;;;;;;;
2021/12/24 01:19:50;;;;;;;0.75;0.50;;;;;;;8.42;84.32;99480.31;5920270;24;20025;-74
2021/12/24 01:50:55;;;;;;;;;;;;;;;;;;;;;
2021/12/24 01:53:53;;;;;;;;;;;;;;;;;;;;;
2021/12/24 01:56:47;;;;;;;1.00;1.00;;;;;;;8.88;84.33;99463.06;6090914;23;20022;-72
2021/12/24 02:06:20;;;;;;;0.40;0.30;;;;;;;8.63;83.67;99450.31;5991955;23;20012;-73
2021/12/24 02:08:45;;;;;;;3.40;2.05;;;;;;;8.51;84.18;99439.72;5988041;23;20016;-72
2021/12/24 02:11:11;;;;;;;5.57;1.83;;;;;;;8.50;84.35;99446.28;6157059;23;20421;-71
2021/12/24 02:13:40;;;;;;;8.30;2.20;;;;;;;8.47;84.76;99452.25;6221566;23;20374;-72
2021/12/24 02:28:17;;;;;;;8.30;1.90;;;;;;;8.47;84.78;99453.09;6221775;23;20032;-72
2021/12/24 02:29:49;;;;;;;3.83;1.42;;;;;;;8.36;84.69;99449.53;6253129;23;20034;-73
2021/12/24 02:32:14;;;;;;;8.25;2.33;;;;;;;8.33;85.13;99449.28;6250171;23;20056;-72
2021/12/24 02:34:40;;;;;;;6.45;2.20;;;;;;;8.30;84.70;99460.72;6222456;23;20008;-71
2021/12/24 02:37:08;;;;;;;2.42;0.82;;;;;;;8.19;84.82;99449.00;6223543;23;20099;-72
2021/12/24 02:39:33;;;;;;;6.78;1.77;;;;;;;8.19;84.95;99449.00;6226822;23;20048;-78
2021/12/24 02:42:10;;;;;;;17.25;1.95;;;;;;;8.37;85.48;99458.53;6223878;23;20012;-72
2021/12/24 02:44:35;;;;;;;6.15;1.20;;;;;;;8.42;85.82;99449.53;6248444;23;20028;-73
2021/12/24 02:47:14;;;;;;;10.70;2.08;;;;;;;8.48;86.35;99449.25;6223329;23;20023;-73
2021/12/24 02:54:57;;;;;;;10.85;2.38;;;;;;;8.73;86.04;99444.84;6243223;23;20042;-72
2021/12/24 02:57:27;;;;;;;7.45;1.60;;;;;;;8.71;85.97;99430.69;6246671;23;20008;-72
2021/12/24 03:00:02;;;;;;;14.15;2.22;;;;;;;8.69;85.51;99432.88;6246230;23;20058;-73
2021/12/24 03:02:30;;;;;;;7.88;1.35;;;;;;;8.69;85.43;99433.69;6246764;23;20038;-72
2021/12/24 03:04:58;;;;;;;6.38;1.08;;;;;;;8.65;85.48;99426.34;6245452;22;20311;-73
2021/12/24 03:07:27;;;;;;;11.20;1.95;;;;;;;8.51;85.42;99410.59;6250581;22;20074;-73
2021/12/24 03:09:53;;;;;;;7.38;1.58;;;;;;;8.58;85.59;99421.19;6251312;23;20406;-72
2021/12/24 03:12:21;;;;;;;6.13;1.33;;;;;;;8.53;85.24;99419.28;6246672;23;20004;-72
2021/12/24 03:14:47;;;;;;;3.13;1.10;;;;;;;8.49;84.92;99423.66;6219198;23;20050;-75
2021/12/24 03:17:17;;;;;;;7.38;0.90;;;;;;;8.44;85.38;99412.78;6247838;22;20008;-72
2021/12/24 03:19:43;;;;;;;6.05;1.30;;;;;;;8.55;86.02;99417.09;6252162;22;19996;-73
2021/12/24 03:24:53;;;;;;;7.28;1.85;;;;;;;8.60;85.32;99423.63;6259149;23;20004;-72
2021/12/24 03:27:19;;;;;;;8.93;2.03;;;;;;;8.55;85.67;99411.66;6225135;23;20004;-73
2021/12/24 03:29:48;;;;;;;10.55;1.50;;;;;;;8.43;85.61;99394.78;6248621;22;20072;-72
2021/12/24 03:32:17;;;;;;;10.40;1.63;;;;;;;8.52;85.57;99403.22;6250795;23;20016;-73
2021/12/24 03:34:44;;;;;;;8.90;1.17;;;;;;;8.46;85.23;99396.16;6247419;23;20007;-73
2021/12/24 03:37:13;;;;;;;11.30;1.35;;;;;;;8.40;85.81;99376.25;6249111;23;20533;-73
2021/12/24 03:39:45;;;;;;;4.38;1.10;;;;;;;8.48;85.93;99393.97;6251594;23;19992;-71
2021/12/24 03:42:13;;;;;;;6.57;1.50;;;;;;;8.42;85.44;99384.97;6253686;22;20323;-72
2021/12/24 03:44:44;;;;;;;8.73;1.40;;;;;;;8.41;85.44;99388.78;6249917;23;20030;-75
2021/12/24 03:47:22;;;;;;;16.40;1.63;;;;;;;8.36;85.45;99386.06;6248539;23;20032;-73
2021/12/24 03:52:32;;;;;;;7.65;1.73;;;;;;;8.34;85.30;99382.81;6250858;22;20022;-74
2021/12/24 03:55:00;;;;;;;1.83;1.02;;;;;;;8.31;85.57;99377.91;6246260;23;20012;-75
2021/12/24 03:57:36;;;;;;;4.43;1.10;;;;;;;8.30;85.51;99379.00;6221682;23;20011;-76
2021/12/24 04:00:13;;;;;;;4.90;1.00;;;;;;;8.29;85.27;99374.66;6250982;22;20004;-75
2021/12/24 04:02:39;;;;;;;9.60;1.52;;;;;;;8.30;85.84;99370.84;6249382;23;20481;-75
2021/12/24 04:05:06;;;;;;;3.40;1.33;;;;;;;8.21;85.41;99356.97;6250796;23;20004;-74
2021/12/24 04:07:31;;;;;;;9.25;1.80;;;;;;;8.20;84.84;99356.13;6250813;22;20027;-75
2021/12/24 04:10:08;;;;;;;5.93;1.15;;;;;;;8.16;85.29;99354.25;6250842;23;20012;-75
2021/12/24 04:12:35;;;;;;;8.38;1.80;;;;;;;8.25;85.58;99365.38;6229420;23;20008;-75
2021/12/24 04:15:01;;;;;;;3.42;1.05;;;;;;;8.34;85.69;99359.09;6249808;23;20088;-75
2021/12/24 04:17:31;;;;;;;6.78;1.50;;;;;;;8.35;85.45;99355.31;6248794;23;20042;-74
2021/12/24 04:25:12;;;;;;;0.68;0.50;;;;;;;8.54;85.77;99366.44;6248947;23;20046;-74
2021/12/24 04:27:37;;;;;;;3.72;0.93;;;;;;;8.57;85.79;99359.59;6226121;23;20008;-75
2021/12/24 04:30:10;;;;;;;3.60;0.93;;;;;;;8.60;85.63;99352.78;6249028;23;20031;-75
2021/12/24 04:35:31;;;;;;;2.38;1.00;;;;;;;8.74;85.68;99342.91;6260741;22;20008;-74
2021/12/24 04:38:12;;;;;;;3.42;1.25;;;;;;;8.89;85.87;99345.56;6229174;23;20023;-75
2021/12/24 04:51:42;;;;;;;1.50;1.00;;;;;;;8.90;84.86;99333.53;6254052;22;20030;-75
2021/12/24 05:05:06;;;;;;;4.13;1.52;;;;;;;8.49;85.15;99308.41;6257390;23;20065;-74
2021/12/24 05:09:58;;;;;;;8.82;2.20;;;;;;;8.50;85.34;99321.75;6255539;22;20016;-75
2021/12/24 05:12:23;;;;;;;4.40;2.00;;;;;;;8.38;85.43;99313.03;6252274;22;20437;-73
2021/12/24 05:14:51;;;;;;;4.50;2.17;;;;;;;8.49;85.27;99322.84;6255108;23;20083;-74
2021/12/24 05:17:25;;;;;;;4.30;2.47;;;;;;;8.47;85.95;99319.59;6251411;22;20042;-75
2021/12/24 05:22:52;;;;;;;8.93;2.35;;;;;;;8.50;86.17;99310.06;6254822;23;20042;-75
2021/12/24 05:25:20;;;;;;;8.57;2.08;;;;;;;8.64;86.03;99335.56;6251685;23;20013;-74
2021/12/24 05:27:45;;;;;;;8.02;1.98;;;;;;;8.67;86.06;99339.66;6253859;23;20197;-74
2021/12/24 05:30:14;;;;;;;3.40;1.58;;;;;;;8.64;85.87;99315.69;6250400;23;20079;-72
2021/12/24 05:32:46;;;;;;;6.05;1.60;;;;;;;8.74;85.92;99321.09;6225644;23;20046;-74
2021/12/24 05:35:12;;;;;;;2.70;1.60;;;;;;;8.70;85.88;99314.56;6248249;23;20062;-74
2021/12/24 05:37:37;;;;;;;5.05;2.05;;;;;;;8.82;85.81;99322.41;6245992;23;20004;-73
2021/12/24 05:40:09;;;;;;;5.95;1.80;;;;;;;8.86;85.61;99324.31;6246906;23;20027;-74
2021/12/24 05:42:37;;;;;;;6.03;1.17;;;;;;;8.93;85.84;99328.63;6254362;22;20000;-75
2021/12/24 05:45:06;;;;;;;3.42;1.38;;;;;;;8.90;86.08;99317.19;6254948;22;20028;-75
2021/12/24 05:47:34;;;;;;;6.05;1.60;;;;;;;9.00;86.03;99324.50;6254944;23;20034;-75
2021/12/24 05:50:02;;;;;;;8.30;2.22;;;;;;;8.96;85.85;99308.97;6252608;23;20012;-75
2021/12/24 05:52:35;;;;;;;7.50;2.00;;;;;;;9.04;85.37;99319.31;6228639;23;20058;-77
2021/12/24 05:55:00;;;;;;;14.13;2.10;;;;;;;8.99;85.01;99306.50;6232427;23;20088;-74
2021/12/24 05:57:35;;;;;;;5.25;1.92;;;;;;;9.03;85.86;99317.66;6228080;23;20398;-73
2021/12/24 06:00:05;;;;;;;3.28;1.27;;;;;;;8.99;85.53;99311.13;6249997;23;20071;-75
2021/12/24 06:02:45;;;;;;;3.03;1.70;;;;;;;8.86;85.10;99302.50;6252587;23;20016;-75
2021/12/24 06:05:13;;;;;;;3.55;0.98;;;;;;;8.77;85.27;99292.47;6249716;22;20426;-73
2021/12/24 06:07:39;;;;;;;1.77;0.40;;;;;;;9.00;85.22;99331.88;6250364;23;20027;-74
2021/12/24 06:10:05;;;;;;;8.35;1.17;;;;;;;8.95;85.69;99320.97;6252118;23;20329;-74
2021/12/24 06:12:31;;;;;;;5.78;1.85;;;;;;;9.06;85.70;99322.53;6253219;23;20008;-74
2021/12/24 06:15:04;;;;;;;1.10;0.57;;;;;;;9.18;85.71;99331.19;6255852;23;20046;-77
2021/12/24 06:17:29;;;;;;;7.85;1.23;;;;;;;9.23;85.96;99322.97;6226183;23;20023;-74
2021/12/24 06:19:55;;;;;;;6.28;1.58;;;;;;;9.25;85.53;99331.69;6249319;23;20000;-74
2021/12/24 06:22:20;;;;;;;3.03;1.27;;;;;;;9.26;85.59;99311.50;6245731;23;20015;-74
2021/12/24 06:24:46;;;;;;;1.95;1.67;;;;;;;9.37;85.34;99323.13;6223379;23;20014;-74
2021/12/24 06:27:11;;;;;;;4.72;1.33;;;;;;;9.44;85.34;99322.81;6248248;23;20016;-75
2021/12/24 06:29:37;;;;;;;5.05;2.15;;;;;;;9.55;85.48;99334.44;6251046;22;20000;-74
2021/12/24 06:32:05;;;;;;;9.30;1.67;;;;;;;9.51;85.35;99327.97;6244216;23;20007;-74
2021/12/24 06:34:31;;;;;;;6.60;1.73;;;;;;;9.51;84.94;99339.69;6247760;23;20012;-74
2021/12/24 06:36:58;;;;;;;2.53;1.00;;;;;;;9.42;85.11;99325.03;6247427;22;20003;-74
2021/12/24 06:39:24;;;;;;;7.05;1.85;;;;;;;9.47;85.51;99330.44;6248830;23;20007;-74
2021/12/24 06:41:49;;;;;;;2.35;1.60;;;;;;;9.49;85.23;99336.44;6247549;23;20008;-73
2021/12/24 06:44:17;;;;;;;9.45;2.17;;;;;;;9.54;85.41;99338.31;6246308;23;20011;-73
2021/12/24 06:46:43;;;;;;;7.35;1.52;;;;;;;9.52;85.56;99330.41;6248298;23;20012;-74
2021/12/24 06:49:10;;;;;;;8.50;2.50;;;;;;;9.51;85.48;99325.22;6244155;22;20326;-72
2021/12/24 06:51:54;;;;;;;9.88;2.38;;;;;;;9.56;85.34;99327.91;6242975;22;20030;-72
2021/12/24 06:54:19;;;;;;;1.98;1.08;;;;;;;9.64;85.38;99318.28;6242305;22;20004;-72
2021/12/24 06:56:45;;;;;;;2.60;1.15;;;;;;;9.71;85.35;99321.47;6242308;23;20008;-73
2021/12/24 06:59:13;;;;;;;0.47;0.47;;;;;;;9.78;85.40;99330.16;6244045;22;20053;-72
2021/12/24 07:01:39;;;;;;;2.72;0.38;;;;;;;9.87;85.13;99333.91;6239683;23;20019;-74
2021/12/24 07:04:05;;;;;;;0.80;0.70;;;;;;;9.90;85.06;99330.59;6249772;22;20300;-74
2021/12/24 07:06:37;;;;;;;0.15;0.15;;;;;;;9.94;85.28;99326.19;6248828;23;20012;-74
2021/12/24 07:09:05;;;;;;;1.55;0.50;;;;;;;9.95;85.38;99316.88;6251827;22;20505;-74
2021/12/24 07:11:40;;;;;;;0.75;0.60;;;;;;;9.90;84.98;99297.81;6250669;23;20087;-75
2021/12/24 07:14:08;;;;;;;0.68;0.30;;;;;;;10.10;85.59;99326.00;6250677;23;20022;-74
2021/12/24 07:16:37;;;;;;;0.28;0.28;;;;;;;10.07;85.07;99318.41;6250633;22;20015;-74
2021/12/24 07:19:08;;;;;;;0.32;0.20;;;;;;;10.08;85.58;99309.91;6250318;23;20644;-76
2021/12/24 07:22:03;;;;;;;3.63;0.40;;;;;;;10.06;85.04;99311.31;6254839;22;20000;-75
2021/12/24 07:24:41;;;;;;;;;;;;;;;;;;;;;
2021/12/24 07:27:07;;;;;;;1.83;0.90;;;;;;;10.05;84.99;99309.69;6248175;23;20361;-70
2021/12/24 07:29:32;;;;;;;2.15;1.05;;;;;;;10.07;84.73;99318.41;6249767;23;20008;-72
2021/12/24 07:31:58;;;;;;;4.70;1.55;;;;;;;10.07;84.93;99318.41;6249052;23;20068;-71
2021/12/24 07:34:24;;;;;;;11.25;2.35;;;;;;;10.03;84.82;99311.88;6245890;23;20311;-71
2021/12/24 07:36:50;;;;;;;2.35;1.95;;;;;;;10.01;84.45;99309.44;6242711;23;20398;-70
2021/12/24 07:39:15;;;;;;;2.78;1.50;;;;;;;10.01;84.99;99314.09;6243408;23;20010;-69
2021/12/24 07:41:41;;;;;;;2.78;1.58;;;;;;;9.96;85.25;99310.31;6245066;22;20012;-72
2021/12/24 07:44:07;;;;;;;5.50;2.55;;;;;;;9.96;84.89;99304.84;6247156;23;20350;-76
2021/12/24 07:46:42;;;;;;;5.80;1.52;;;;;;;9.91;85.01;99310.34;6252668;23;20004;-77
2021/12/24 07:49:59;;;;;;;1.67;1.58;;;;;;;9.89;84.75;99309.03;6254802;22;20008;-77
2021/12/24 07:54:33;;;;;;;2.42;2.00;;;;;;;9.86;85.25;99313.16;6262839;22;20007;-74
2021/12/24 07:57:00;;;;;;;3.03;2.50;;;;;;;9.83;85.29;99315.63;6250560;23;20000;-74
2021/12/24 07:59:26;;;;;;;5.57;2.72;;;;;;;9.81;85.30;99305.00;6225443;23;20015;-74
2021/12/24 08:01:54;;;;;;;8.73;2.85;;;;;;;9.74;84.57;99299.09;6249885;23;20021;-74
2021/12/24 08:04:20;;;;;;;3.70;2.20;;;;;;;9.69;84.32;99301.84;6250048;22;20023;-76
2021/12/24 08:06:45;;;;;;;8.52;2.53;;;;;;;9.60;84.57;99298.94;6224779;23;20004;-75
2021/12/24 08:09:12;;;;;;;4.57;2.25;;;;;;;9.55;84.79;99297.06;6249786;23;20068;-74
2021/12/24 08:11:38;;;;;;;7.55;1.98;;;;;;;9.57;85.02;99308.50;6252146;22;20011;-76
2021/12/24 08:14:06;;;;;;;5.88;2.60;;;;;;;9.51;84.66;99298.75;6250793;22;20008;-76
2021/12/24 08:16:33;;;;;;;3.58;1.95;;;;;;;9.48;85.13;99309.44;6249536;23;20430;-75
2021/12/24 08:19:00;;;;;;;2.28;1.30;;;;;;;9.43;84.90;99300.19;6251083;23;20483;-75
2021/12/24 08:21:25;;;;;;;4.43;0.88;;;;;;;9.31;84.64;99285.28;6253210;23;20004;-75
2021/12/24 08:23:54;;;;;;;3.30;0.88;;;;;;;9.36;84.39;99293.41;6255887;22;20050;-75
2021/12/24 08:26:25;;;;;;;3.22;0.70;;;;;;;9.29;84.66;99282.00;6252969;23;20006;-75
2021/12/24 08:28:53;;;;;;;4.55;0.63;;;;;;;9.20;84.77;99279.91;6253349;23;20004;-75
2021/12/24 08:31:18;;;;;;;6.55;1.20;;;;;;;9.18;84.54;99284.00;6252061;22;20004;-75
2021/12/24 08:33:44;;;;;;;0.88;0.88;;;;;;;9.23;85.06;99284.78;6226429;23;20000;-74
2021/12/24 08:36:12;;;;;;;0.57;0.57;;;;;;;9.21;84.69;99278.81;6252534;23;20015;-75
2021/12/24 08:38:45;;;;;;;1.88;0.90;;;;;;;9.23;85.11;99281.25;6241974;23;20478;-73
2021/12/24 08:41:37;;;;;;;6.03;2.03;;;;;;;9.30;85.07;99289.09;6224215;23;20007;-75
2021/12/24 08:44:12;;;;;;;2.00;1.23;;;;;;;9.38;85.33;99285.75;6253467;23;20091;-75
2021/12/24 08:46:51;;;;;;;7.13;2.40;;;;;;;9.44;84.73;99281.88;6254536;22;20003;-74
2021/12/24 08:49:26;;;;;;;3.70;1.98;;;;;;;9.64;85.19;99299.16;6253568;23;20008;-75
2021/12/24 08:51:53;;;;;;;2.03;1.42;;;;;;;9.67;85.19;99288.50;6250878;23;20030;-75
2021/12/24 08:54:41;;;;;;;1.10;0.90;;;;;;;9.78;84.99;99289.19;6252033;23;20000;-75
2021/12/24 08:57:09;;;;;;;0.50;0.50;;;;;;;9.87;84.98;99292.13;6251929;23;20008;-75
2021/12/24 08:59:34;;;;;;;0.57;0.57;;;;;;;9.96;84.50;99293.94;6253306;22;20000;-72
2021/12/24 09:02:03;;;;;;;1.00;0.80;;;;;;;10.00;85.00;99279.69;6248816;23;20448;-74
2021/12/24 09:04:34;;;;;;;0.38;0.38;;;;;;;10.00;84.68;99272.31;6228629;23;20004;-74
2021/12/24 09:07:00;;;;;;;1.75;1.52;;;;;;;10.15;84.29;99276.81;6249665;23;20004;-73
2021/12/24 09:09:27;;;;;;;3.65;0.85;;;;;;;10.16;84.23;99272.94;6252721;22;20012;-72
2021/12/24 09:11:53;;;;;;;2.22;1.13;;;;;;;10.21;84.40;99263.91;6253522;22;20008;-74
2021/12/24 09:14:21;;;;;;;3.38;1.05;;;;;;;10.26;84.39;99272.03;6249746;22;20419;-72
2021/12/24 09:16:48;;;;;;;3.10;1.65;;;;;;;10.26;84.34;99272.81;6251640;22;20330;-72
2021/12/24 09:19:18;;;;;;;3.95;1.27;;;;;;;10.21;83.86;99253.78;6249628;23;20003;-72
2021/12/24 09:21:44;;;;;;;0.63;0.63;;;;;;;10.24;84.44;99252.38;6252451;22;20054;-72
2021/12/24 09:24:21;;;;;;;0.50;0.50;;;;;;;10.27;84.71;99247.13;6246732;23;20012;-73
2021/12/24 09:26:59;;;;;;;0.50;0.50;;;;;;;10.26;84.58;99250.97;6246918;23;20016;-72
2021/12/24 09:29:28;;;;;;;1.30;1.20;;;;;;;10.37;84.11;99273.56;6226056;23;20026;-73
2021/12/24 09:31:58;;;;;;;1.33;1.23;;;;;;;10.31;84.09;99253.66;6253226;22;20008;-73
2021/12/24 09:34:24;;;;;;;0.47;0.47;;;;;;;10.38;84.22;99247.88;6226635;23;20015;-73
2021/12/24 09:36:49;;;;;;;0.80;0.80;;;;;;;10.55;83.83;99274.69;6255064;22;20660;-75
2021/12/24 09:39:16;;;;;;;3.15;0.88;;;;;;;10.58;83.55;99262.34;6252480;23;20009;-76
2021/12/24 09:41:42;;;;;;;1.02;0.98;;;;;;;10.57;83.50;99258.81;6227322;23;20011;-73
2021/12/24 09:44:11;;;;;;;1.75;0.80;;;;;;;10.65;84.15;99257.34;6227838;23;20014;-75
2021/12/24 09:46:44;;;;;;;2.00;0.88;;;;;;;10.60;83.55;99252.75;6256499;22;20008;-74
2021/12/24 09:49:12;;;;;;;1.38;0.75;;;;;;;10.69;83.65;99246.59;6255029;22;20011;-74
2021/12/24 09:51:41;;;;;;;1.80;0.70;;;;;;;10.68;83.63;99245.81;6251598;22;20020;-75
2021/12/24 09:54:25;;;;;;;0.50;0.30;;;;;;;10.69;83.96;99257.53;6249086;23;20107;-75
2021/12/24 09:56:56;;;;;;;0.40;0.35;;;;;;;10.75;84.17;99265.38;6246155;23;20034;-75
2021/12/24 09:59:29;;;;;;;1.42;1.15;;;;;;;10.76;83.92;99269.75;6251082;22;20006;-75
2021/12/24 10:02:00;;;;;;;1.20;1.10;;;;;;;10.65;83.42;99252.66;6244434;23;20011;-73
2021/12/24 10:04:36;;;;;;;6.55;1.40;;;;;;;10.65;83.67;99258.13;6248527;22;20014;-74
2021/12/24 10:07:25;;;;;;;1.60;0.93;;;;;;;10.69;83.90;99263.00;6246592;22;20008;-74
2021/12/24 10:09:50;;;;;;;5.85;1.02;;;;;;;10.62;83.42;99253.25;6245630;23;20376;-73
2021/12/24 10:12:24;;;;;;;0.77;0.70;;;;;;;10.71;83.95;99272.56;6246892;23;20024;-73
2021/12/24 10:14:56;;;;;;;2.67;1.45;;;;;;;10.70;84.22;99270.13;6249372;22;20028;-72
2021/12/24 10:17:34;;;;;;;3.33;0.60;;;;;;;10.61;83.90;99251.63;6245978;22;20076;-72
2021/12/24 10:20:13;;;;;;;0.50;0.50;;;;;;;10.71;83.61;99247.13;6243172;23;20005;-73
2021/12/24 10:23:41;;;;;;;;;;;;;;;;;;;;;
2021/12/24 10:26:30;;;;;;;0.52;0.43;;;;;;;10.79;83.79;99246.47;6247326;22;20391;-74
2021/12/24 10:28:58;;;;;;;0.75;0.20;;;;;;;10.84;84.27;99260.06;6252313;23;19999;-73
2021/12/24 10:31:34;;;;;;;1.65;1.00;;;;;;;10.92;83.86;99255.84;6248355;23;20054;-73
2021/12/24 10:34:33;;;;;;;0.40;0.32;;;;;;;10.98;83.95;99246.44;6249497;23;20011;-72
2021/12/24 10:37:09;;;;;;;0.85;0.73;;;;;;;10.95;83.57;99239.66;6248841;23;20083;-72
2021/12/24 10:39:52;;;;;;;0.28;0.25;;;;;;;11.03;83.41;99240.09;6250807;22;20043;-73
2021/12/24 10:42:21;;;;;;;0.20;0.20;;;;;;;11.13;83.97;99245.41;6251357;23;20020;-73
2021/12/24 10:45:37;;;;;;;0.20;0.20;;;;;;;11.18;83.91;99242.56;6251418;23;20011;-73
2021/12/24 10:48:25;;;;;;;2.08;0.70;;;;;;;11.22;83.06;99231.84;6239256;23;20450;-74
2021/12/24 10:51:51;;;;;;;;;;;;;;;;;;;;;
2021/12/24 10:55:16;;;;;;;0.40;0.40;;;;;;;11.01;83.09;99215.78;6246666;22;20016;-74
2021/12/24 10:57:47;;;;;;;3.65;0.50;;;;;;;11.07;82.76;99224.69;6254850;23;20000;-75
2021/12/24 11:00:56;;;;;;;1.25;0.95;;;;;;;11.11;82.83;99223.00;6253657;23;20019;-73
2021/12/24 11:04:00;;;;;;;1.45;0.60;;;;;;;11.18;83.06;99235.19;6251197;22;20087;-74
2021/12/24 11:06:34;;;;;;;3.13;1.00;;;;;;;11.06;82.95;99210.22;6227174;23;20023;-75
2021/12/24 11:09:05;;;;;;;3.67;1.47;;;;;;;11.13;83.35;99223.53;6252988;23;20058;-74
2021/12/24 11:12:00;;;;;;;2.38;1.63;;;;;;;11.27;82.57;99224.38;6252388;23;20011;-73
2021/12/24 11:14:27;;;;;;;2.88;1.45;;;;;;;11.22;82.54;99210.78;6209836;22;20011;-73
2021/12/24 11:19:51;;;;;;;3.58;1.20;;;;;;;11.28;83.30;99198.63;6232587;23;20627;-76
2021/12/24 11:22:20;;;;;;;4.82;1.30;;;;;;;11.37;83.02;99197.94;6258428;22;20000;-76
2021/12/24 11:25:08;;;;;;;2.75;0.88;;;;;;;11.42;83.09;99176.75;6256336;23;20007;-77
2021/12/24 11:27:34;;;;;;;4.72;0.95;;;;;;;11.50;82.79;99167.03;6233913;23;20090;-77
2021/12/24 11:30:27;;;;;;;1.35;0.68;;;;;;;11.62;82.81;99167.34;6231014;23;20023;-78
2021/12/24 11:33:30;;;;;;;1.52;1.08;;;;;;;11.69;82.57;99159.53;6256891;22;20008;-76
2021/12/24 11:36:05;;;;;;;3.42;0.90;;;;;;;11.63;82.44;99159.94;6253143;22;20650;-76
2021/12/24 11:38:47;;;;;;;3.35;1.10;;;;;;;11.64;82.52;99156.91;6252815;23;20030;-74
2021/12/24 11:41:25;;;;;;;4.47;1.05;;;;;;;11.66;82.44;99171.09;6256256;22;20034;-75
2021/12/24 11:43:55;;;;;;;2.88;0.95;;;;;;;11.47;82.02;99160.22;6253272;23;20000;-75
2021/12/24 11:46:33;;;;;;;5.32;1.27;;;;;;;11.33;82.27;99153.91;6254165;22;19996;-76
2021/12/24 11:49:11;;;;;;;;;;;;;;;;;;;;;
2021/12/24 11:51:55;;;;;;;5.95;1.30;;;;;;;11.07;82.89;99137.97;6249950;23;20055;-78
2021/12/24 11:54:21;;;;;;;4.38;1.40;;;;;;;11.05;83.18;99144.84;6254049;22;20054;-76
2021/12/24 11:56:53;;;;;;;2.72;1.40;;;;;;;11.04;83.03;99154.16;6227715;23;20024;-75
2021/12/24 11:59:39;;;;;;;3.28;0.90;;;;;;;10.96;83.04;99137.31;6250921;23;20052;-74
2021/12/24 12:02:08;;;;;;;8.18;1.67;;;;;;;10.84;83.73;99134.28;6251258;23;20071;-76
2021/12/24 12:04:36;;;;;;;2.33;1.40;;;;;;;10.81;84.02;99135.66;6227085;23;20000;-75
2021/12/24 12:07:31;;;;;;;10.40;2.10;;;;;;;10.84;83.90;99139.75;6253939;23;20023;-76
2021/12/24 12:10:09;;;;;;;;;;;;;;;;;;;;;
2021/12/24 12:12:38;;;;;;;7.55;1.42;;;;;;;10.80;84.11;99133.25;6252607;23;20035;-75
2021/12/24 12:15:31;;;;;;;3.78;1.58;;;;;;;10.70;83.99;99117.81;6250049;23;20000;-75
2021/12/24 12:18:03;;;;;;;1.10;0.90;;;;;;;10.73;84.22;99122.69;6253174;22;20028;-74
2021/12/24 12:20:57;;;;;;;4.60;0.95;;;;;;;10.72;83.95;99114.78;6253056;22;20004;-74
2021/12/24 12:23:51;;;;;;;6.30;1.42;;;;;;;10.76;84.29;99124.00;6253492;22;20081;-75
2021/12/24 12:26:39;;;;;;;4.40;1.40;;;;;;;10.72;84.33;99120.25;6252187;23;20000;-76
2021/12/24 12:29:24;;;;;;;4.38;1.48;;;;;;;10.68;84.58;99114.56;6251182;23;20008;-74
2021/12/24 12:32:14;;;;;;;4.13;1.10;;;;;;;10.69;83.66;99116.19;6251209;23;20307;-74
2021/12/24 12:34:47;;;;;;;3.70;1.30;;;;;;;10.71;83.85;99113.97;6206018;23;20008;-74
2021/12/24 12:37:41;;;;;;;4.18;1.95;;;;;;;10.74;83.76;99113.38;6252525;23;20020;-76
2021/12/24 12:40:46;;;;;;;2.75;0.98;;;;;;;10.79;83.77;99104.25;6249311;23;20004;-74
2021/12/24 12:43:41;;;;;;;;;;;;;;;;;;;;;
2021/12/24 12:46:37;;;;;;;;;;;;;;;;;;;;;
2021/12/24 12:49:36;;;;;;;5.13;0.93;;;;;;;10.86;84.21;99098.41;6255587;22;20434;-74
2021/12/24 12:52:24;;;;;;;3.58;1.15;;;;;;;10.74;83.96;99080.56;6250635;23;20093;-75
2021/12/24 12:54:56;;;;;;;1.40;0.77;;;;;;;10.75;84.13;99070.44;6248826;23;20010;-75
2021/12/24 12:58:19;;;;;;;4.18;1.10;;;;;;;10.86;83.82;99077.34;6247587;23;20079;-75
2021/12/24 13:01:24;;;;;;;6.70;1.60;;;;;;;10.92;83.55;99075.34;6102287;23;20013;-76
2021/12/24 13:03:55;;;;;;;4.18;1.38;;;;;;;10.93;83.66;99075.03;6062072;23;20076;-76
2021/12/24 13:06:24;;;;;;;1.88;1.33;;;;;;;10.89;83.81;99060.31;6165819;23;20001;-76
2021/12/24 13:08:56;;;;;;;2.83;1.60;;;;;;;10.90;84.14;99064.69;6201827;23;20032;-76
2021/12/24 13:11:46;;;;;;;;;;;;;;;;;;;;;
2021/12/24 13:14:43;;;;;;;;;;;;;;;;;;;;;
2021/12/24 13:17:28;;;;;;;2.33;1.42;;;;;;;10.82;83.87;99044.31;6257350;23;20043;-77
2021/12/24 13:23:08;;;;;;;;;;;;;;;;;;;;;
2021/12/24 13:26:10;;;;;;;4.68;1.92;;;;;;;10.78;84.66;99020.63;6189728;23;20047;-77
2021/12/24 13:29:06;;;;;;;2.15;1.73;;;;;;;10.98;84.49;99042.13;6161755;23;20005;-77
2021/12/24 13:31:50;;;;;;;1.33;1.20;;;;;;;10.87;83.99;99023.47;6141048;23;20015;-76
2021/12/24 13:34:41;;;;;;;2.22;1.88;;;;;;;10.86;84.25;99017.19;6244940;22;20023;-77
2021/12/24 13:37:48;;;;;;;;;;;;;;;;;;;;;
2021/12/24 13:40:34;;;;;;;5.25;1.77;;;;;;;10.95;83.83;99029.06;6255529;23;20022;-77
2021/12/24 13:43:31;;;;;;;;;;;;;;;;;;;;;
2021/12/24 14:07:00;;;;;;;1.73;1.38;;;;;;;10.74;83.59;98993.06;5908967;24;20009;-76
2021/12/24 14:09:43;;;;;;;1.92;1.30;;;;;;;10.69;83.68;98984.97;5944964;24;20084;-79
2021/12/24 14:12:45;;;;;;;;;;;;;;;;;;;;;
2021/12/24 14:15:23;;;;;;;1.65;1.50;;;;;;;10.70;83.90;98980.31;6013209;23;20428;-78
2021/12/24 14:18:49;;;;;;;3.40;1.80;;;;;;;10.68;83.68;98977.06;6048221;23;20012;-77
2021/12/24 14:22:10;;;;;;;;;;;;;;;;;;;;;
2021/12/24 14:25:13;;;;;;;;;;;;;;;;;;;;;
2021/12/24 14:34:35;;;;;;;1.30;0.82;;;;;;;10.56;83.86;98959.22;6238577;22;20008;-79
2021/12/24 14:37:31;;;;;;;;;;;;;;;;;;;;;
2021/12/24 14:40:31;;;;;;;;;;;;;;;;;;;;;
2021/12/24 14:43:28;;;;;;;1.23;1.23;;;;;;;10.57;83.92;98954.56;6255079;23;20023;-79
2021/12/24 14:53:03;;;;;;;1.42;1.33;;;;;;;10.63;84.07;98973.31;6182798;23;20064;-77
2021/12/24 15:13:26;;;;;;;1.60;0.80;;;;;;;10.47;83.62;98961.06;5980650;24;20019;-77
2021/12/24 15:17:07;;;;;;;;;;;;;;;;;;;;;
2021/12/24 15:19:32;;;;;;;2.67;1.00;;;;;;;10.51;84.20;98953.03;5978493;24;20008;-76
2021/12/24 15:22:17;;;;;;;;;;;;;;;;;;;;;
2021/12/24 15:25:00;;;;;;;2.25;1.30;;;;;;;10.31;84.09;98936.69;6132032;23;20084;-76
2021/12/24 15:27:55;;;;;;;4.25;0.75;;;;;;;10.48;83.99;98958.00;6228448;23;20465;-76
2021/12/24 15:30:40;;;;;;;;;;;;;;;;;;;;;
2021/12/24 15:36:04;;;;;;;1.02;0.95;;;;;;;10.37;83.86;98939.38;6245578;22;20004;-75
2021/12/24 15:38:39;;;;;;;1.00;1.00;;;;;;;10.45;84.49;98952.31;6250534;22;19996;-74
2021/12/24 15:41:22;;;;;;;0.80;0.80;;;;;;;10.36;84.02;98932.28;6248017;23;20438;-75
2021/12/24 15:43:53;;;;;;;3.15;1.50;;;;;;;10.42;83.98;98947.47;6253500;22;20008;-75
2021/12/24 15:46:27;;;;;;;1.30;1.00;;;;;;;10.38;84.63;98936.34;6249030;23;19999;-75
2021/12/24 15:48:55;;;;;;;1.52;1.00;;;;;;;10.35;83.99;98925.19;6203256;23;20684;-74
2021/12/24 15:51:31;;;;;;;1.23;1.20;;;;;;;10.36;84.36;98926.81;6250504;23;20079;-76
2021/12/24 15:54:14;;;;;;;1.67;1.10;;;;;;;10.44;84.12;98939.75;6235510;23;20028;-76
2021/12/24 15:56:52;;;;;;;1.83;1.10;;;;;;;10.44;83.88;98928.84;6217214;22;20016;-76
2021/12/24 15:59:35;;;;;;;;;;;;;;;;;;;;;
2021/12/24 16:02:13;;;;;;;;;;;;;;;;;;;;;
2021/12/24 16:05:18;;;;;;;;;;;;;;;;;;;;;
2021/12/24 16:07:58;;;;;;;;;;;;;;;;;;;;;
2021/12/24 16:10:44;;;;;;;;;;;;;;;;;;;;;
2021/12/24 16:13:19;;;;;;;2.15;1.95;;;;;;;10.61;83.55;98945.44;6281509;22;20130;-75